Beaver Island, Canada
Current Conditions -  °F | °C
As of 12:00 PM on Monday 24 Nov 2014 (Local Time) from CYHZ Reporting Station
Overcast Overcast  
Wind Chill: 42°   Ceiling: 21000
Heat Index: 48°   Visibility: 15mi
Dew Point: 41°   Wind: 18mph
Humidity: 76%   Direction: 150°SSE
Pressure: 30.16"   Gusts: 25mph
Location:  44.75°N, 62.8°W
Report Text: CYHZ 241600Z 15016G22KT 15SM FEW017 OVC210 09/05 A3016 RMK SC2CS6 SLP217
Loading
Personal Weather Stations






























Interactive Weather Map New forecast layout! Learn more

10-Day Weather Forecast

Advertisements
Track Severe Weather on mobile